Time;durP1;ratioP1;P1;durP2;ratioP2;P2;SDS_P1;SDS_P2;PMS_P1;PMS_P2;Temp;Humidity;BMP_temperature;BMP_pressure;BME280_temperature;BME280_humidity;BME280_pressure;Samples;Min_cycle;Max_cycle;Signal;HPM_P1;HPM_P2
2024/03/12 00:01:08;;;;;;;4.63;2.50;;;8.00;99.90;;;;;;4951551;28;20245;-70
2024/03/12 00:03:42;;;;;;;4.82;2.80;;;8.00;99.90;;;;;;4957031;28;20091;-69
2024/03/12 00:06:09;;;;;;;4.80;2.97;;;8.00;99.90;;;;;;4965476;28;20030;-69
2024/03/12 00:08:36;;;;;;;3.78;2.75;;;8.00;99.90;;;;;;4950829;28;20133;-69
2024/03/12 00:11:04;;;;;;;3.88;2.22;;;7.90;99.90;;;;;;4958113;28;20030;-69
2024/03/12 00:13:30;;;;;;;4.07;2.60;;;7.90;99.90;;;;;;4959768;28;20058;-69
2024/03/12 00:15:56;;;;;;;4.65;2.78;;;7.90;99.90;;;;;;4954254;28;20046;-69
2024/03/12 00:18:25;;;;;;;2.97;2.35;;;7.90;99.90;;;;;;4960851;28;20058;-70
2024/03/12 00:20:53;;;;;;;3.95;2.13;;;7.90;99.90;;;;;;4963567;28;20039;-69
2024/03/12 00:23:19;;;;;;;5.65;2.70;;;7.90;99.90;;;;;;4953528;28;20679;-69
2024/03/12 00:25:45;;;;;;;2.75;2.08;;;7.90;99.90;;;;;;4957909;28;20042;-70
2024/03/12 00:28:11;;;;;;;4.63;2.90;;;7.90;99.90;;;;;;4964800;28;20042;-69
2024/03/12 00:30:40;;;;;;;4.68;2.97;;;7.90;99.90;;;;;;4956791;28;20034;-70
2024/03/12 00:33:07;;;;;;;3.55;2.65;;;8.00;99.90;;;;;;4960815;28;20039;-70
2024/03/12 00:35:35;;;;;;;3.60;2.35;;;7.90;99.90;;;;;;4964948;28;20035;-69
2024/03/12 00:38:03;;;;;;;5.32;2.58;;;8.00;99.90;;;;;;4963747;28;20169;-69
2024/03/12 00:40:36;;;;;;;4.47;2.25;;;7.90;99.90;;;;;;4958638;28;20042;-70
2024/03/12 00:43:08;;;;;;;3.42;2.42;;;7.90;99.90;;;;;;4963304;28;20398;-70
2024/03/12 00:45:37;;;;;;;5.45;2.97;;;7.90;99.90;;;;;;4955830;28;20027;-69
2024/03/12 00:48:09;;;;;;;3.42;2.20;;;7.90;99.90;;;;;;4960415;28;20777;-69
2024/03/12 00:50:36;;;;;;;5.00;2.33;;;7.90;99.90;;;;;;4962940;28;20078;-69
2024/03/12 00:53:03;;;;;;;3.22;2.08;;;7.80;99.90;;;;;;4952333;28;20038;-70
2024/03/12 00:55:29;;;;;;;3.78;2.33;;;7.80;99.90;;;;;;4958235;28;20493;-69
2024/03/12 00:57:57;;;;;;;3.50;2.53;;;7.70;99.90;;;;;;4962120;28;20762;-69
2024/03/12 01:00:28;;;;;;;4.05;2.45;;;7.70;99.90;;;;;;4953313;28;20613;-69
2024/03/12 01:02:58;;;;;;;6.05;2.92;;;7.60;99.90;;;;;;4960901;28;20038;-69
2024/03/12 01:05:31;;;;;;;4.95;2.58;;;7.60;99.90;;;;;;4960094;28;20035;-69
2024/03/12 01:07:59;;;;;;;4.93;3.10;;;7.60;99.90;;;;;;4954180;28;20517;-69
2024/03/12 01:10:27;;;;;;;3.08;2.05;;;7.60;99.90;;;;;;4958959;28;20031;-69
2024/03/12 01:12:55;;;;;;;4.60;2.03;;;7.60;99.90;;;;;;4960219;28;20043;-69
2024/03/12 01:15:25;;;;;;;3.90;2.30;;;7.50;99.90;;;;;;4953493;28;20031;-69
2024/03/12 01:17:53;;;;;;;3.05;2.05;;;7.40;99.90;;;;;;4959438;28;20049;-69
2024/03/12 01:20:24;;;;;;;3.25;2.13;;;7.50;99.90;;;;;;4961667;28;20037;-69
2024/03/12 01:22:54;;;;;;;3.08;2.38;;;7.50;99.90;;;;;;4952639;28;20107;-69
2024/03/12 01:25:21;;;;;;;6.70;2.60;;;7.50;99.90;;;;;;4958855;28;20059;-69
2024/03/12 01:27:47;;;;;;;2.88;2.28;;;7.30;99.90;;;;;;4974193;28;20050;-69
2024/03/12 01:30:20;;;;;;;4.25;2.85;;;7.30;99.90;;;;;;4953270;28;20325;-69
2024/03/12 01:32:47;;;;;;;4.97;2.28;;;7.20;99.90;;;;;;4962193;28;20105;-69
2024/03/12 01:35:13;;;;;;;5.20;2.50;;;7.10;99.90;;;;;;4962662;28;20903;-69
2024/03/12 01:37:43;;;;;;;7.80;3.50;;;7.00;99.90;;;;;;4954698;28;20203;-69
2024/03/12 01:40:29;;;;;;;4.13;2.70;;;7.00;99.90;;;;;;4958390;28;20035;-69
2024/03/12 01:42:57;;;;;;;;;;;7.10;99.90;;;;;;4960833;28;20146;-69
2024/03/12 01:45:24;;;;;;;5.25;2.90;;;7.10;99.90;;;;;;4953316;28;19942;-70
2024/03/12 01:47:52;;;;;;;5.47;3.05;;;7.10;99.90;;;;;;4959180;28;20050;-69
2024/03/12 01:50:19;;;;;;;4.75;3.35;;;7.20;99.90;;;;;;4958498;28;20047;-69
2024/03/12 01:52:47;;;;;;;8.15;3.20;;;7.20;99.90;;;;;;4952901;28;20058;-69
2024/03/12 01:55:18;;;;;;;4.88;2.92;;;7.20;99.90;;;;;;4960206;28;20090;-69
2024/03/12 01:57:48;;;;;;;3.17;2.78;;;7.20;99.90;;;;;;4976577;28;20829;-69
2024/03/12 02:00:15;;;;;;;4.53;2.47;;;7.30;99.90;;;;;;4954382;28;20109;-69
2024/03/12 02:02:42;;;;;;;3.38;2.72;;;7.30;99.90;;;;;;4961830;28;20113;-69
2024/03/12 02:05:10;;;;;;;4.50;2.90;;;7.30;99.90;;;;;;4956718;28;20058;-69
2024/03/12 02:07:45;;;;;;;4.50;2.90;;;7.30;99.90;;;;;;4955947;28;20057;-69
2024/03/12 02:10:12;;;;;;;4.35;3.00;;;7.30;99.90;;;;;;4960770;28;20055;-69
2024/03/12 02:12:37;;;;;;;5.28;2.95;;;7.20;99.90;;;;;;4957627;28;20058;-69
2024/03/12 02:15:04;;;;;;;4.43;2.60;;;7.20;99.90;;;;;;4954353;28;20414;-69
2024/03/12 02:17:30;;;;;;;3.60;2.20;;;7.10;99.90;;;;;;4960400;28;20038;-69
2024/03/12 02:19:57;;;;;;;3.42;2.40;;;7.10;99.90;;;;;;4956587;28;20039;-69
2024/03/12 02:22:23;;;;;;;3.55;2.33;;;7.10;99.90;;;;;;4952749;28;20109;-69
2024/03/12 02:24:50;;;;;;;5.03;3.00;;;7.10;99.90;;;;;;4960866;28;20035;-69
2024/03/12 02:27:17;;;;;;;3.35;2.60;;;7.10;99.90;;;;;;4956544;28;20861;-70
2024/03/12 02:29:47;;;;;;;3.88;3.20;;;7.10;99.90;;;;;;4953830;28;20126;-69
2024/03/12 02:32:13;;;;;;;5.35;2.40;;;7.10;99.90;;;;;;4960981;28;20159;-69
2024/03/12 02:34:39;;;;;;;4.90;2.50;;;7.10;99.90;;;;;;4959459;28;20601;-69
2024/03/12 02:37:05;;;;;;;3.25;2.65;;;7.10;99.90;;;;;;4951080;28;20031;-69
2024/03/12 02:39:31;;;;;;;3.40;2.72;;;7.10;99.90;;;;;;4959028;28;20038;-69
2024/03/12 02:42:00;;;;;;;4.72;2.47;;;7.10;99.90;;;;;;4958080;28;20565;-69
2024/03/12 02:44:26;;;;;;;3.20;2.63;;;7.10;99.90;;;;;;4957073;28;20090;-69
2024/03/12 02:46:54;;;;;;;6.38;3.00;;;7.20;99.90;;;;;;4960544;28;20690;-69
2024/03/12 02:49:20;;;;;;;4.50;3.20;;;7.10;99.90;;;;;;4958400;28;20027;-69
2024/03/12 02:51:46;;;;;;;3.80;2.60;;;7.20;99.90;;;;;;4955429;28;20039;-69
2024/03/12 02:54:13;;;;;;;4.65;3.10;;;7.20;99.90;;;;;;4965452;28;20031;-69
2024/03/12 02:56:39;;;;;;;5.05;2.65;;;7.10;99.90;;;;;;4957586;28;20157;-69
2024/03/12 02:59:05;;;;;;;2.60;2.33;;;7.20;99.90;;;;;;4956594;28;20405;-69
2024/03/12 03:01:30;;;;;;;5.68;2.50;;;7.20;99.90;;;;;;4961402;28;20622;-69
2024/03/12 03:03:57;;;;;;;4.80;2.47;;;7.10;99.90;;;;;;4957320;28;20479;-69
2024/03/12 03:06:26;;;;;;;3.63;2.97;;;7.20;99.90;;;;;;4954656;28;20046;-69
2024/03/12 03:08:51;;;;;;;4.40;2.75;;;7.20;99.90;;;;;;4958807;28;20049;-69
2024/03/12 03:11:17;;;;;;;3.30;2.50;;;7.20;99.90;;;;;;4958783;28;20031;-69
2024/03/12 03:13:43;;;;;;;6.97;2.75;;;7.10;99.90;;;;;;4953140;28;20154;-69
2024/03/12 03:16:08;;;;;;;5.43;2.85;;;7.10;99.90;;;;;;4960150;28;20063;-69
2024/03/12 03:18:34;;;;;;;3.75;2.42;;;7.10;99.90;;;;;;4955575;28;20039;-68
2024/03/12 03:21:00;;;;;;;3.38;2.63;;;7.10;99.90;;;;;;4951394;28;20027;-69
2024/03/12 03:23:26;;;;;;;4.25;2.50;;;7.00;99.90;;;;;;4958060;28;20433;-69
2024/03/12 03:25:52;;;;;;;3.40;2.70;;;6.90;99.90;;;;;;4958846;28;20133;-69
2024/03/12 03:28:18;;;;;;;4.10;2.72;;;6.80;99.90;;;;;;4953379;28;20034;-69
2024/03/12 03:30:44;;;;;;;4.40;2.75;;;6.80;99.90;;;;;;4959783;28;20026;-69
2024/03/12 03:33:11;;;;;;;4.47;2.38;;;6.70;99.90;;;;;;4959452;28;20038;-69
2024/03/12 03:35:38;;;;;;;4.38;3.17;;;6.70;99.90;;;;;;4951706;28;20042;-69
2024/03/12 03:38:05;;;;;;;3.25;2.45;;;6.70;99.90;;;;;;4973600;28;20085;-69
2024/03/12 03:40:33;;;;;;;3.75;2.53;;;6.60;99.90;;;;;;4958355;28;20577;-69
2024/03/12 03:42:59;;;;;;;5.10;2.83;;;6.60;99.90;;;;;;4961889;28;20038;-69
2024/03/12 03:45:25;;;;;;;3.47;2.30;;;6.60;99.90;;;;;;4955624;28;20044;-69
2024/03/12 03:47:51;;;;;;;5.53;3.40;;;6.60;99.90;;;;;;4957096;28;20030;-69
2024/03/12 03:50:17;;;;;;;4.75;2.85;;;6.70;99.90;;;;;;4954284;28;20490;-69
2024/03/12 03:52:43;;;;;;;4.07;3.00;;;6.70;99.90;;;;;;4960675;28;20081;-69
2024/03/12 03:55:10;;;;;;;4.80;3.35;;;6.70;99.90;;;;;;4963516;28;20118;-69
2024/03/12 03:57:36;;;;;;;3.55;2.83;;;6.70;99.90;;;;;;4957505;28;20035;-69
2024/03/12 04:00:12;;;;;;;4.32;2.70;;;6.70;99.90;;;;;;4963192;28;20483;-69
2024/03/12 04:02:39;;;;;;;;;;;6.70;99.90;;;;;;4962746;28;20058;-69
2024/03/12 04:05:05;;;;;;;5.07;3.13;;;6.70;99.90;;;;;;4955606;28;19968;-69
2024/03/12 04:07:30;;;;;;;5.80;3.53;;;6.70;99.90;;;;;;4960505;28;20031;-69
2024/03/12 04:09:56;;;;;;;3.63;2.95;;;6.70;99.90;;;;;;4963963;28;20081;-69
2024/03/12 04:12:22;;;;;;;3.97;2.75;;;6.80;99.90;;;;;;4955775;28;20043;-69
2024/03/12 04:14:48;;;;;;;4.53;3.05;;;6.80;99.90;;;;;;4960555;28;20061;-69
2024/03/12 04:17:14;;;;;;;4.03;2.83;;;6.70;99.90;;;;;;4964195;28;20034;-69
2024/03/12 04:19:40;;;;;;;3.38;2.75;;;6.60;99.90;;;;;;4956352;28;20039;-69
2024/03/12 04:22:06;;;;;;;4.95;2.83;;;6.50;99.90;;;;;;4960247;28;20030;-69
2024/03/12 04:24:31;;;;;;;4.45;2.88;;;6.50;99.90;;;;;;4961470;28;20703;-69
2024/03/12 04:26:57;;;;;;;4.43;3.00;;;6.50;99.90;;;;;;4955732;28;20410;-69
2024/03/12 04:29:23;;;;;;;4.55;3.03;;;6.40;99.90;;;;;;4961061;28;20137;-69
2024/03/12 04:31:48;;;;;;;5.15;3.30;;;6.40;99.90;;;;;;4975889;28;20502;-69
2024/03/12 04:34:14;;;;;;;3.67;2.80;;;6.40;99.90;;;;;;4955175;28;20065;-69
2024/03/12 04:36:40;;;;;;;5.18;3.08;;;6.30;99.90;;;;;;4958607;28;20038;-69
2024/03/12 04:41:51;;;;;;;6.03;3.17;;;6.40;99.90;;;;;;4955678;28;20039;-69
2024/03/12 04:44:17;;;;;;;6.55;3.70;;;6.50;99.90;;;;;;4968131;28;20077;-69
2024/03/12 04:46:43;;;;;;;7.85;4.25;;;6.50;99.90;;;;;;4963327;28;20026;-69
2024/03/12 04:49:09;;;;;;;5.53;3.33;;;6.60;99.90;;;;;;4952768;28;20042;-69
2024/03/12 04:51:35;;;;;;;5.75;3.50;;;6.60;99.90;;;;;;4960223;28;20481;-69
2024/03/12 04:54:01;;;;;;;4.68;3.47;;;6.60;99.90;;;;;;4962712;28;20038;-69
2024/03/12 04:56:26;;;;;;;8.43;3.28;;;6.60;99.90;;;;;;4957235;28;20035;-69
2024/03/12 04:58:52;;;;;;;6.05;3.20;;;6.70;99.90;;;;;;4960751;28;20042;-69
2024/03/12 05:01:18;;;;;;;5.22;3.03;;;6.70;99.90;;;;;;4962785;28;20121;-68
2024/03/12 05:03:44;;;;;;;4.13;2.88;;;6.60;99.90;;;;;;4952955;28;20103;-69
2024/03/12 05:06:10;;;;;;;5.05;2.85;;;6.50;99.90;;;;;;4957456;28;20023;-69
2024/03/12 05:08:36;;;;;;;5.20;3.17;;;6.40;99.90;;;;;;4961298;28;20516;-69
2024/03/12 05:11:02;;;;;;;6.00;3.47;;;6.40;99.90;;;;;;4955415;28;20502;-69
2024/03/12 05:13:27;;;;;;;4.25;3.22;;;6.30;99.90;;;;;;4959961;28;20058;-69
2024/03/12 05:15:53;;;;;;;4.57;3.22;;;6.30;99.90;;;;;;4961650;28;20035;-69
2024/03/12 05:18:19;;;;;;;6.20;3.20;;;6.30;99.90;;;;;;4953860;28;20038;-69
2024/03/12 05:20:45;;;;;;;6.65;3.80;;;6.30;99.90;;;;;;4957159;28;20046;-69
2024/03/12 05:23:11;;;;;;;6.75;3.55;;;6.30;99.90;;;;;;4962226;28;20022;-69
2024/03/12 05:25:39;;;;;;;6.65;3.58;;;6.40;99.90;;;;;;4954083;28;20025;-69
2024/03/12 05:28:12;;;;;;;5.93;3.33;;;6.30;99.90;;;;;;4962103;28;20037;-69
2024/03/12 05:30:40;;;;;;;5.97;4.30;;;6.30;99.90;;;;;;4962729;28;20034;-69
2024/03/12 05:33:10;;;;;;;8.98;5.00;;;6.40;99.90;;;;;;4954265;28;20030;-69
2024/03/12 05:35:38;;;;;;;8.50;4.43;;;6.40;99.90;;;;;;4956613;28;20031;-69
2024/03/12 05:48:52;;;;;;;7.22;4.40;;;6.50;99.90;;;;;;4955451;28;20674;-69
2024/03/12 05:51:21;;;;;;;6.78;4.10;;;6.60;99.90;;;;;;4960962;28;20035;-69
2024/03/12 05:53:48;;;;;;;6.95;4.00;;;6.70;99.90;;;;;;4959234;28;20046;-69
2024/03/12 05:56:14;;;;;;;6.93;4.22;;;6.80;99.90;;;;;;4975191;28;20165;-69
2024/03/12 05:58:39;;;;;;;5.38;3.75;;;6.90;99.90;;;;;;4961239;28;20548;-69
2024/03/12 06:01:05;;;;;;;7.55;4.63;;;6.90;99.90;;;;;;4958041;28;20041;-69
2024/03/12 06:03:37;;;;;;;7.40;4.18;;;7.00;99.90;;;;;;4953493;28;20569;-69
2024/03/12 06:06:07;;;;;;;6.80;4.00;;;7.10;99.90;;;;;;4958957;28;20019;-69
2024/03/12 06:08:33;;;;;;;7.03;3.83;;;7.20;99.90;;;;;;4958603;28;20698;-69
2024/03/12 06:10:59;;;;;;;5.82;4.05;;;7.20;99.90;;;;;;4955403;28;20111;-69
2024/03/12 06:13:25;;;;;;;6.45;3.80;;;7.30;99.90;;;;;;4960601;28;20112;-69
2024/03/12 06:15:51;;;;;;;7.00;4.00;;;7.30;99.90;;;;;;4956978;28;20031;-69
2024/03/12 06:18:22;;;;;;;6.55;3.83;;;7.40;99.90;;;;;;4956259;28;20035;-69
2024/03/12 06:20:49;;;;;;;9.05;3.85;;;7.50;99.90;;;;;;4960392;28;20101;-69
2024/03/12 06:23:18;;;;;;;6.95;3.67;;;7.50;99.90;;;;;;4957649;28;20039;-69
2024/03/12 06:25:44;;;;;;;7.18;3.65;;;7.60;99.90;;;;;;4956229;28;20047;-69
2024/03/12 06:28:11;;;;;;;5.22;3.72;;;7.60;99.90;;;;;;4961788;28;21085;-69
2024/03/12 06:30:42;;;;;;;7.78;3.22;;;7.50;99.90;;;;;;4958363;28;20111;-69
2024/03/12 06:33:07;;;;;;;4.28;2.85;;;7.50;99.90;;;;;;4956672;28;20513;-69
2024/03/12 06:35:35;;;;;;;6.22;3.75;;;7.50;99.90;;;;;;4958657;28;20026;-69
2024/03/12 06:38:01;;;;;;;4.10;2.95;;;7.60;99.90;;;;;;4956728;28;20023;-69
2024/03/12 06:40:27;;;;;;;3.97;2.90;;;7.60;99.90;;;;;;4953856;28;20592;-69
2024/03/12 06:42:53;;;;;;;5.38;3.17;;;7.60;99.90;;;;;;4960669;28;20046;-69
2024/03/12 06:45:19;;;;;;;7.88;4.00;;;7.70;99.90;;;;;;4958957;28;20023;-69
2024/03/12 06:47:47;;;;;;;5.30;3.70;;;7.70;99.90;;;;;;4953076;28;20117;-69
2024/03/12 06:50:14;;;;;;;7.15;4.57;;;7.70;99.90;;;;;;4960316;28;20434;-70
2024/03/12 06:52:41;;;;;;;9.50;5.50;;;7.70;99.90;;;;;;4958446;28;20066;-69
2024/03/12 06:55:15;;;;;;;14.90;4.88;;;7.80;99.90;;;;;;4955150;28;20042;-70
2024/03/12 06:57:48;;;;;;;10.40;6.35;;;7.80;99.90;;;;;;4961152;28;20773;-69
2024/03/12 07:00:22;;;;;;;17.58;6.95;;;7.80;99.90;;;;;;4957135;28;20652;-70
2024/03/12 07:02:49;;;;;;;9.80;5.55;;;7.80;99.90;;;;;;4953106;28;20110;-69
2024/03/12 07:05:15;;;;;;;13.18;5.20;;;7.90;99.90;;;;;;4959356;28;20032;-69
2024/03/12 07:07:46;;;;;;;17.80;6.10;;;7.90;99.90;;;;;;4956131;28;20371;-69
2024/03/12 07:10:14;;;;;;;9.60;5.57;;;8.00;99.90;;;;;;4955063;28;20031;-69
2024/03/12 07:12:42;;;;;;;9.73;4.75;;;8.00;99.90;;;;;;4961667;28;20065;-69
2024/03/12 07:15:11;;;;;;;9.80;5.68;;;8.10;99.90;;;;;;4971146;28;20035;-69
2024/03/12 07:17:36;;;;;;;12.20;5.63;;;8.20;99.90;;;;;;4953567;28;20039;-69
2024/03/12 07:20:10;;;;;;;12.02;5.50;;;8.40;99.90;;;;;;4958464;28;20452;-66
2024/03/12 07:22:36;;;;;;;9.25;5.78;;;8.50;99.90;;;;;;4954598;28;20042;-69
2024/03/12 07:25:02;;;;;;;9.18;4.55;;;8.60;99.90;;;;;;4955003;28;20556;-69
2024/03/12 07:27:29;;;;;;;10.05;5.80;;;8.60;99.90;;;;;;4961452;28;20027;-69
2024/03/12 07:29:55;;;;;;;78.95;31.63;;;8.80;99.90;;;;;;4955146;28;20031;-69
2024/03/12 07:32:21;;;;;;;76.18;32.63;;;9.00;99.90;;;;;;4953795;28;20110;-69
2024/03/12 07:34:49;;;;;;;37.42;16.10;;;9.30;99.90;;;;;;4959482;28;20674;-69
2024/03/12 07:37:17;;;;;;;22.10;12.95;;;9.50;99.90;;;;;;4956054;28;20031;-69
2024/03/12 07:39:43;;;;;;;24.50;13.10;;;9.60;99.90;;;;;;4955613;28;20533;-70
2024/03/12 07:42:09;;;;;;;121.95;52.38;;;9.90;99.90;;;;;;4961286;28;20038;-70
2024/03/12 07:44:38;;;;;;;65.70;30.85;;;10.40;99.90;;;;;;4956751;28;20038;-70
2024/03/12 07:47:04;;;;;;;32.65;16.45;;;10.90;99.90;;;;;;4952615;28;20030;-70
2024/03/12 07:49:32;;;;;;;17.30;9.10;;;11.20;99.90;;;;;;4958698;28;20479;-70
2024/03/12 07:52:00;;;;;;;9.50;6.15;;;11.10;99.90;;;;;;4956798;28;20860;-70
2024/03/12 07:54:26;;;;;;;12.15;7.25;;;11.00;99.90;;;;;;4954082;28;20507;-70
2024/03/12 07:56:52;;;;;;;8.48;4.82;;;10.80;99.90;;;;;;4960339;28;20035;-70
2024/03/12 07:59:22;;;;;;;6.97;5.28;;;10.60;99.90;;;;;;4956136;28;20601;-70
2024/03/12 08:01:57;;;;;;;5.72;3.80;;;10.40;99.90;;;;;;4954388;28;20034;-70
2024/03/12 08:04:25;;;;;;;5.28;3.92;;;10.30;99.90;;;;;;4959980;28;20038;-70
2024/03/12 08:06:51;;;;;;;8.00;4.15;;;10.20;99.90;;;;;;4957950;28;20034;-70
2024/03/12 08:09:20;;;;;;;9.27;4.78;;;10.20;99.90;;;;;;4954031;28;20066;-69
2024/03/12 08:11:49;;;;;;;7.25;4.15;;;10.30;99.90;;;;;;4958906;28;20031;-69
2024/03/12 08:14:16;;;;;;;6.30;4.70;;;10.40;99.90;;;;;;4952139;28;20039;-69
2024/03/12 08:16:42;;;;;;;8.73;4.47;;;10.80;99.90;;;;;;4953774;28;20118;-69
2024/03/12 08:19:11;;;;;;;9.48;4.15;;;11.20;99.90;;;;;;4959564;28;20121;-68
2024/03/12 08:21:38;;;;;;;7.80;4.47;;;11.70;99.90;;;;;;4954935;28;20035;-68
2024/03/12 08:24:04;;;;;;;8.40;4.43;;;12.10;99.90;;;;;;4954796;28;20046;-68
2024/03/12 08:26:33;;;;;;;7.47;3.80;;;12.30;99.90;;;;;;4959955;28;20027;-69
2024/03/12 08:28:58;;;;;;;6.75;5.15;;;12.40;99.90;;;;;;4969599;28;20031;-66
2024/03/12 08:31:27;;;;;;;8.20;4.32;;;12.50;99.90;;;;;;4952259;28;20061;-63
2024/03/12 08:33:54;;;;;;;6.32;4.28;;;12.70;99.90;;;;;;4956416;28;20070;-67
2024/03/12 08:36:21;;;;;;;6.03;3.95;;;12.80;99.90;;;;;;4957862;28;20722;-67
2024/03/12 08:38:47;;;;;;;8.55;4.57;;;13.00;99.90;;;;;;4957860;28;20405;-67
2024/03/12 08:41:14;;;;;;;8.75;4.15;;;13.10;99.90;;;;;;4960656;28;20031;-66
2024/03/12 08:43:41;;;;;;;8.73;3.97;;;13.30;99.90;;;;;;4962897;28;20030;-66
2024/03/12 08:46:07;;;;;;;6.50;4.22;;;13.40;99.90;;;;;;4956099;28;20486;-68
2024/03/12 08:48:36;;;;;;;7.40;4.65;;;13.50;99.90;;;;;;4963843;28;20042;-66
2024/03/12 08:51:02;;;;;;;7.07;4.18;;;13.80;99.90;;;;;;4958671;28;20039;-67
2024/03/12 08:53:30;;;;;;;5.30;3.50;;;14.00;99.90;;;;;;4955303;28;20050;-68
2024/03/12 08:55:59;;;;;;;7.40;3.85;;;14.30;99.90;;;;;;4963591;28;20121;-68
2024/03/12 08:58:25;;;;;;;6.20;4.00;;;14.60;99.60;;;;;;4956934;28;20041;-68
2024/03/12 09:00:52;;;;;;;5.38;4.00;;;14.80;99.30;;;;;;4956660;28;20039;-68
2024/03/12 09:03:19;;;;;;;5.30;3.65;;;15.00;98.30;;;;;;4961957;28;20491;-68
2024/03/12 09:05:45;;;;;;;5.38;4.13;;;15.10;97.80;;;;;;4959469;28;20082;-69
2024/03/12 09:08:11;;;;;;;6.20;4.15;;;15.60;96.60;;;;;;4957213;28;20679;-68
2024/03/12 09:10:37;;;;;;;5.93;3.63;;;16.10;95.70;;;;;;4963314;28;20482;-68
2024/03/12 09:13:04;;;;;;;6.18;3.63;;;16.90;93.70;;;;;;4958903;28;20537;-68
2024/03/12 09:15:31;;;;;;;5.30;3.40;;;17.50;92.10;;;;;;4956231;28;20495;-68
2024/03/12 09:18:06;;;;;;;5.53;3.50;;;18.00;90.00;;;;;;4976422;28;20030;-68
2024/03/12 09:20:38;;;;;;;6.13;3.80;;;18.30;87.00;;;;;;4959256;28;20482;-68
2024/03/12 09:23:04;;;;;;;4.85;3.65;;;18.80;84.60;;;;;;4974040;28;20093;-68
2024/03/12 09:25:30;;;;;;;5.45;3.22;;;19.30;81.20;;;;;;4962603;28;20350;-68
2024/03/12 09:27:56;;;;;;;6.45;3.80;;;19.90;77.90;;;;;;4957669;28;20447;-69
2024/03/12 09:30:24;;;;;;;5.90;3.80;;;20.00;74.90;;;;;;4954827;28;20027;-68
2024/03/12 09:32:51;;;;;;;5.55;3.83;;;20.10;74.90;;;;;;4961202;28;20086;-68
2024/03/12 09:35:18;;;;;;;5.82;3.67;;;20.00;74.20;;;;;;4959770;28;20050;-69
2024/03/12 09:37:45;;;;;;;6.30;3.67;;;19.60;75.60;;;;;;4959031;28;20035;-70
2024/03/12 09:40:13;;;;;;;4.82;4.00;;;19.20;76.00;;;;;;4962837;28;20032;-68
2024/03/12 09:42:47;;;;;;;6.97;4.43;;;18.50;76.90;;;;;;4958561;28;20059;-68
2024/03/12 09:45:13;;;;;;;7.95;3.63;;;18.10;80.20;;;;;;4955166;28;20058;-68
2024/03/12 09:47:41;;;;;;;5.93;4.32;;;17.80;81.60;;;;;;4960420;28;20054;-70
2024/03/12 09:50:11;;;;;;;7.70;4.90;;;17.60;81.50;;;;;;4955939;28;20764;-71
2024/03/12 09:52:41;;;;;;;6.15;4.38;;;17.40;79.90;;;;;;4955970;28;20065;-71
2024/03/12 09:55:13;;;;;;;6.40;4.60;;;17.10;80.90;;;;;;4977297;28;20129;-71
2024/03/12 09:57:44;;;;;;;11.70;4.45;;;17.20;83.40;;;;;;4956355;28;20058;-70
2024/03/12 10:00:22;;;;;;;6.07;3.70;;;17.40;81.10;;;;;;4954046;28;20042;-70
2024/03/12 10:02:51;;;;;;;6.10;4.32;;;17.70;79.90;;;;;;4961268;28;20035;-70
2024/03/12 10:05:21;;;;;;;7.32;4.95;;;18.20;79.60;;;;;;4955797;28;20031;-70
2024/03/12 10:08:06;;;;;;;12.20;4.70;;;18.30;77.20;;;;;;4957023;28;20037;-71
2024/03/12 10:10:36;;;;;;;7.05;4.15;;;18.30;78.40;;;;;;4963506;28;20089;-71
2024/03/12 10:13:04;;;;;;;6.15;4.45;;;19.10;75.60;;;;;;4953543;28;20552;-71
2024/03/12 10:15:33;;;;;;;7.75;4.45;;;19.90;74.10;;;;;;4954656;28;20072;-71
2024/03/12 10:17:59;;;;;;;5.82;3.83;;;20.40;71.60;;;;;;4975054;28;20443;-71
2024/03/12 10:20:26;;;;;;;5.40;4.05;;;20.70;69.70;;;;;;4972764;28;20757;-71
2024/03/12 10:23:09;;;;;;;7.47;4.93;;;20.70;69.00;;;;;;4957601;28;20473;-71
2024/03/12 10:25:36;;;;;;;5.93;4.15;;;20.70;68.50;;;;;;4959768;28;20031;-70
2024/03/12 10:28:05;;;;;;;6.85;4.50;;;20.80;67.90;;;;;;4956126;28;20482;-71
2024/03/12 10:30:31;;;;;;;7.90;4.60;;;21.20;66.10;;;;;;4956567;28;20034;-71
2024/03/12 10:32:57;;;;;;;6.32;4.68;;;21.70;65.50;;;;;;4960613;28;20062;-71
2024/03/12 10:35:23;;;;;;;5.78;3.97;;;22.20;62.00;;;;;;4954449;28;20039;-71
2024/03/12 10:37:50;;;;;;;5.00;3.80;;;22.80;61.70;;;;;;4960041;28;20047;-71
2024/03/12 10:40:19;;;;;;;6.80;4.28;;;23.50;59.20;;;;;;4960761;28;20060;-71
2024/03/12 10:42:58;;;;;;;6.53;4.30;;;23.60;57.40;;;;;;4954007;28;20031;-71
2024/03/12 10:45:24;;;;;;;4.95;3.70;;;24.20;56.40;;;;;;4956901;28;20102;-71
2024/03/12 10:47:50;;;;;;;7.03;3.88;;;25.00;54.80;;;;;;4959456;28;20027;-71
2024/03/12 10:50:17;;;;;;;7.03;4.82;;;25.30;52.50;;;;;;4956697;28;20541;-71
2024/03/12 10:52:47;;;;;;;5.95;4.07;;;24.30;53.50;;;;;;4971287;28;20049;-69
2024/03/12 10:55:21;;;;;;;4.80;3.58;;;23.70;54.30;;;;;;4960697;28;20042;-70
2024/03/12 10:57:50;;;;;;;6.80;4.15;;;23.40;53.50;;;;;;4953891;28;20126;-71
2024/03/12 11:00:20;;;;;;;4.68;3.25;;;23.00;55.10;;;;;;4957285;28;20030;-71
2024/03/12 11:02:50;;;;;;;5.28;3.38;;;22.40;55.60;;;;;;4960870;28;20759;-71
2024/03/12 11:05:32;;;;;;;4.35;3.17;;;22.90;54.10;;;;;;4968323;28;20779;-71
2024/03/12 11:07:59;;;;;;;5.20;3.13;;;23.70;54.20;;;;;;4961001;28;20655;-71
2024/03/12 11:10:27;;;;;;;5.70;3.55;;;24.70;51.40;;;;;;4959603;28;20031;-71
2024/03/12 11:13:00;;;;;;;4.65;3.08;;;25.20;50.60;;;;;;4972330;28;20031;-72
2024/03/12 11:15:26;;;;;;;6.30;3.45;;;25.50;50.10;;;;;;4957284;28;20036;-71
2024/03/12 11:17:53;;;;;;;6.70;3.80;;;25.20;49.40;;;;;;4959248;28;20112;-71
2024/03/12 11:20:23;;;;;;;4.70;3.08;;;24.00;50.60;;;;;;4952723;28;20046;-71
2024/03/12 11:22:56;;;;;;;6.20;3.50;;;22.60;54.70;;;;;;4959281;28;20034;-70
2024/03/12 11:25:34;;;;;;;4.80;3.10;;;21.50;57.30;;;;;;4959147;28;20054;-70
2024/03/12 11:28:20;;;;;;;7.20;3.65;;;20.60;59.60;;;;;;4952129;28;20066;-70
2024/03/12 11:30:49;;;;;;;3.83;3.15;;;19.90;59.40;;;;;;4958853;28;20023;-70
2024/03/12 11:33:40;;;;;;;4.68;3.17;;;19.50;61.30;;;;;;4956238;28;20081;-71
2024/03/12 11:36:29;;;;;;;5.40;3.03;;;19.20;61.90;;;;;;4957232;28;20035;-71
2024/03/12 11:39:12;;;;;;;6.07;3.70;;;18.90;62.70;;;;;;4961168;28;20179;-71
2024/03/12 11:41:57;;;;;;;6.28;3.25;;;18.70;62.40;;;;;;4953884;28;20058;-71
2024/03/12 11:45:02;;;;;;;4.30;2.97;;;18.60;64.40;;;;;;4955155;28;20046;-71
2024/03/12 11:47:36;;;;;;;3.65;2.65;;;18.30;65.70;;;;;;4924264;29;20042;-71
2024/03/12 11:50:34;;;;;;;5.20;3.78;;;18.20;65.40;;;;;;4906492;29;20028;-71
2024/03/12 11:53:21;;;;;;;5.07;3.38;;;17.90;66.00;;;;;;4953356;28;20039;-71
2024/03/12 11:56:05;;;;;;;6.85;4.13;;;17.70;67.60;;;;;;4954257;28;20038;-70
2024/03/12 11:58:38;;;;;;;6.78;4.25;;;17.60;68.10;;;;;;4959098;28;20030;-69
2024/03/12 12:01:06;;;;;;;7.88;4.35;;;17.50;68.60;;;;;;4958502;28;20043;-69
2024/03/12 12:03:35;;;;;;;7.15;3.70;;;17.50;68.60;;;;;;4971247;28;20027;-70
2024/03/12 12:06:02;;;;;;;5.78;3.72;;;17.60;68.50;;;;;;4957615;28;20032;-70
2024/03/12 12:08:30;;;;;;;7.13;4.10;;;17.70;68.50;;;;;;4960925;28;20107;-70
2024/03/12 12:11:02;;;;;;;7.20;4.45;;;17.80;68.50;;;;;;4955977;28;20027;-70
2024/03/12 12:13:29;;;;;;;5.47;3.58;;;17.90;69.20;;;;;;4957204;28;20035;-70
2024/03/12 12:16:06;;;;;;;7.30;4.18;;;18.00;68.60;;;;;;4962355;28;20138;-70
2024/03/12 12:18:33;;;;;;;5.30;3.90;;;18.10;67.40;;;;;;4958764;28;20033;-70
2024/03/12 12:21:18;;;;;;;7.53;3.88;;;18.10;68.70;;;;;;4962104;28;20042;-70
2024/03/12 12:23:47;;;;;;;4.93;3.83;;;17.90;67.80;;;;;;4964773;28;20129;-70
2024/03/12 12:26:21;;;;;;;7.07;4.13;;;17.90;69.10;;;;;;4956019;28;20038;-70
2024/03/12 12:28:51;;;;;;;5.75;4.05;;;17.70;68.60;;;;;;4960734;28;20038;-70
2024/03/12 12:31:19;;;;;;;5.22;3.67;;;17.60;67.40;;;;;;4963524;28;20031;-70
2024/03/12 12:33:58;;;;;;;6.30;4.30;;;17.50;69.20;;;;;;4954312;28;20101;-70
2024/03/12 12:36:30;;;;;;;6.75;3.83;;;16.90;69.40;;;;;;4962010;28;20031;-70
2024/03/12 12:39:00;;;;;;;7.60;3.78;;;16.40;72.80;;;;;;4961212;28;20035;-70
2024/03/12 12:41:34;;;;;;;6.57;3.80;;;16.30;72.60;;;;;;4954436;28;20039;-70
2024/03/12 12:44:07;;;;;;;4.28;3.50;;;16.30;72.00;;;;;;4959275;28;20034;-70
2024/03/12 12:46:36;;;;;;;7.95;3.47;;;16.50;73.20;;;;;;4955890;28;20429;-69
2024/03/12 12:49:04;;;;;;;5.53;4.00;;;16.70;72.50;;;;;;4955991;28;20039;-69
2024/03/12 12:51:30;;;;;;;8.15;4.10;;;17.00;71.10;;;;;;4963147;28;20035;-69
2024/03/12 12:54:02;;;;;;;6.22;3.60;;;17.20;70.60;;;;;;4961686;28;20046;-70
2024/03/12 12:56:31;;;;;;;5.60;3.38;;;17.30;71.30;;;;;;4955526;28;20106;-69
2024/03/12 12:59:10;;;;;;;5.63;3.50;;;17.30;70.70;;;;;;4960671;28;20022;-69
2024/03/12 13:01:37;;;;;;;7.30;4.18;;;17.10;70.60;;;;;;4960002;28;20118;-69
2024/03/12 13:04:21;;;;;;;7.22;3.47;;;16.90;70.20;;;;;;4956597;28;20074;-69
2024/03/12 13:06:49;;;;;;;8.13;3.55;;;16.80;71.60;;;;;;4959515;28;20554;-69
2024/03/12 13:09:31;;;;;;;5.22;3.30;;;16.90;71.70;;;;;;4957193;28;20521;-69
2024/03/12 13:12:01;;;;;;;4.05;3.03;;;17.10;72.30;;;;;;4971099;28;20027;-69
2024/03/12 13:14:27;;;;;;;5.72;3.50;;;17.10;71.30;;;;;;4961441;28;20371;-69